Terminal Aerodrome Forecast
Issued by NWS

Home | Current Version | Previous Version | Graphics & Text | Print | Product List | Glossary On
Versions: 1 2 3 4 5 6 7 8 9 10 11 12 13 14 15 16 17 18 19 20 21 22
000
FTUS43 KICT 300108 AAA
TAFHUT
TAF AMD
KHUT 300108Z 3001/3024 05006KT P6SM FEW020
      TEMPO 3002/3005 BKN020
     FM300900 VRB03KT 2SM BR FEW013
     FM301600 11006KT P6SM SCT030=

USA.gov is the U.S. government's official web portal to all federal, state and local government web resources and services.